sensor_id;sensor_type;location;lat;lon;timestamp;pressure;altitude;pressure_sealevel;temperature;humidity
81704;BME280;71117;52.352;4.808;2023-11-19T00:00:15;100770.44;;;13.71;94.13
81704;BME280;71117;52.352;4.808;2023-11-19T00:02:41;100779.28;;;13.73;94.30
81704;BME280;71117;52.352;4.808;2023-11-19T00:05:07;100781.09;;;13.75;94.06
81704;BME280;71117;52.352;4.808;2023-11-19T00:07:37;100774.84;;;13.67;94.27
81704;BME280;71117;52.352;4.808;2023-11-19T00:10:15;100766.88;;;13.66;94.95
81704;BME280;71117;52.352;4.808;2023-11-19T00:12:45;100759.78;;;13.59;94.69
81704;BME280;71117;52.352;4.808;2023-11-19T00:15:12;100762.44;;;13.54;94.66
81704;BME280;71117;52.352;4.808;2023-11-19T00:17:38;100768.63;;;13.53;94.82
81704;BME280;71117;52.352;4.808;2023-11-19T00:20:06;100762.41;;;13.51;94.56
81704;BME280;71117;52.352;4.808;2023-11-19T00:22:31;100752.69;;;13.55;94.03
81704;BME280;71117;52.352;4.808;2023-11-19T00:24:57;100750.94;;;13.54;94.69
81704;BME280;71117;52.352;4.808;2023-11-19T00:27:23;100742.97;;;13.55;94.12
81704;BME280;71117;52.352;4.808;2023-11-19T00:29:48;100755.34;;;13.47;93.72
81704;BME280;71117;52.352;4.808;2023-11-19T00:32:14;100755.31;;;13.50;93.75
81704;BME280;71117;52.352;4.808;2023-11-19T00:34:40;100751.81;;;13.53;93.13
81704;BME280;71117;52.352;4.808;2023-11-19T00:37:06;100758.81;;;13.40;93.73
81704;BME280;71117;52.352;4.808;2023-11-19T00:39:31;100762.34;;;13.37;94.06
81704;BME280;71117;52.352;4.808;2023-11-19T00:41:57;100748.25;;;13.49;93.00
81704;BME280;71117;52.352;4.808;2023-11-19T00:44:22;100750.88;;;13.41;93.65
81704;BME280;71117;52.352;4.808;2023-11-19T00:46:48;100745.53;;;13.32;94.22
81704;BME280;71117;52.352;4.808;2023-11-19T00:49:14;100747.28;;;13.35;94.43
81704;BME280;71117;52.352;4.808;2023-11-19T00:51:40;100756.13;;;13.32;94.22
81704;BME280;71117;52.352;4.808;2023-11-19T00:54:05;100754.38;;;13.31;94.01
81704;BME280;71117;52.352;4.808;2023-11-19T00:56:31;100749.97;;;13.39;94.41
81704;BME280;71117;52.352;4.808;2023-11-19T00:58:56;100772.09;;;13.44;94.04
81704;BME280;71117;52.352;4.808;2023-11-19T01:01:21;100743.81;;;13.46;93.83
81704;BME280;71117;52.352;4.808;2023-11-19T01:03:47;100745.59;;;13.49;93.83
81704;BME280;71117;52.352;4.808;2023-11-19T01:06:12;100741.19;;;13.49;93.76
81704;BME280;71117;52.352;4.808;2023-11-19T01:08:39;100738.56;;;13.54;94.23
81704;BME280;71117;52.352;4.808;2023-11-19T01:11:04;100719.97;;;13.53;94.02
81704;BME280;71117;52.352;4.808;2023-11-19T01:13:29;100722.63;;;13.57;93.00
81704;BME280;71117;52.352;4.808;2023-11-19T01:15:55;100747.41;;;13.61;93.12
81704;BME280;71117;52.352;4.808;2023-11-19T01:18:21;100734.16;;;13.64;92.34
81704;BME280;71117;52.352;4.808;2023-11-19T01:20:47;100706.75;;;13.68;91.66
81704;BME280;71117;52.352;4.808;2023-11-19T01:23:12;100704.97;;;13.61;91.89
81704;BME280;71117;52.352;4.808;2023-11-19T01:25:37;100707.63;;;13.59;91.74
81704;BME280;71117;52.352;4.808;2023-11-19T01:28:03;100703.19;;;13.60;91.86
81704;BME280;71117;52.352;4.808;2023-11-19T01:30:29;100714.66;;;13.49;91.68
81704;BME280;71117;52.352;4.808;2023-11-19T01:32:55;100704.06;;;13.53;92.29
81704;BME280;71117;52.352;4.808;2023-11-19T01:35:21;100713.75;;;13.50;92.02
81704;BME280;71117;52.352;4.808;2023-11-19T01:37:47;100720.84;;;13.50;91.09
81704;BME280;71117;52.352;4.808;2023-11-19T01:40:13;100736.72;;;13.38;92.40
81704;BME280;71117;52.352;4.808;2023-11-19T01:42:39;100745.56;;;13.38;91.95
81704;BME280;71117;52.352;4.808;2023-11-19T01:45:04;100735.81;;;13.34;91.72
81704;BME280;71117;52.352;4.808;2023-11-19T01:47:32;100743.81;;;13.42;91.42
81704;BME280;71117;52.352;4.808;2023-11-19T01:49:58;100710.19;;;13.39;91.18
81704;BME280;71117;52.352;4.808;2023-11-19T01:52:25;100726.16;;;13.48;90.72
81704;BME280;71117;52.352;4.808;2023-11-19T01:54:52;100723.44;;;13.39;90.45
81704;BME280;71117;52.352;4.808;2023-11-19T01:57:19;100733.19;;;13.43;90.97
81704;BME280;71117;52.352;4.808;2023-11-19T01:59:46;100725.22;;;13.39;90.86
81704;BME280;71117;52.352;4.808;2023-11-19T02:02:12;100740.22;;;13.32;90.82
81704;BME280;71117;52.352;4.808;2023-11-19T02:04:38;100734.91;;;13.26;91.00
81704;BME280;71117;52.352;4.808;2023-11-19T02:07:04;100728.63;;;13.16;91.49
81704;BME280;71117;52.352;4.808;2023-11-19T02:09:29;100733.00;;;13.13;91.40
81704;BME280;71117;52.352;4.808;2023-11-19T02:11:55;100731.25;;;13.12;91.66
81704;BME280;71117;52.352;4.808;2023-11-19T02:14:24;100739.22;;;13.13;91.28
81704;BME280;71117;52.352;4.808;2023-11-19T02:16:51;100729.47;;;13.12;90.70
81704;BME280;71117;52.352;4.808;2023-11-19T02:19:19;100740.94;;;13.04;91.29
81704;BME280;71117;52.352;4.808;2023-11-19T02:21:44;100725.94;;;13.09;91.71
81704;BME280;71117;52.352;4.808;2023-11-19T02:24:12;100733.84;;;13.07;91.45
81704;BME280;71117;52.352;4.808;2023-11-19T02:26:47;100729.44;;;13.03;91.76
81704;BME280;71117;52.352;4.808;2023-11-19T02:29:17;100726.78;;;13.05;91.50
81704;BME280;71117;52.352;4.808;2023-11-19T02:31:42;100737.38;;;13.06;91.17
81704;BME280;71117;52.352;4.808;2023-11-19T02:34:10;100720.59;;;13.04;90.43
81704;BME280;71117;52.352;4.808;2023-11-19T02:36:37;100712.63;;;12.96;92.04
81704;BME280;71117;52.352;4.808;2023-11-19T02:39:03;100711.72;;;12.91;91.30
81704;BME280;71117;52.352;4.808;2023-11-19T02:41:28;100713.41;;;12.83;92.51
81704;BME280;71117;52.352;4.808;2023-11-19T02:43:54;100709.03;;;12.90;91.78
81704;BME280;71117;52.352;4.808;2023-11-19T02:46:19;100726.72;;;12.94;91.58
81704;BME280;71117;52.352;4.808;2023-11-19T02:48:45;100732.03;;;12.91;91.39
81704;BME280;71117;52.352;4.808;2023-11-19T02:51:11;100714.34;;;12.91;91.66
81704;BME280;71117;52.352;4.808;2023-11-19T02:53:38;100728.53;;;12.98;90.92
81704;BME280;71117;52.352;4.808;2023-11-19T02:56:05;100730.25;;;12.96;90.55
81704;BME280;71117;52.352;4.808;2023-11-19T02:58:50;100724.13;;;13.06;90.10
81704;BME280;71117;52.352;4.808;2023-11-19T03:01:25;100723.22;;;13.01;89.97
81704;BME280;71117;52.352;4.808;2023-11-19T03:04:02;100730.31;;;13.02;89.69
81704;BME280;71117;52.352;4.808;2023-11-19T03:06:27;100728.59;;;13.09;89.00
81704;BME280;71117;52.352;4.808;2023-11-19T03:08:54;100733.84;;;13.06;88.57
81704;BME280;71117;52.352;4.808;2023-11-19T03:11:19;100723.31;;;13.13;88.38
81704;BME280;71117;52.352;4.808;2023-11-19T03:13:45;100721.47;;;13.00;89.10
81704;BME280;71117;52.352;4.808;2023-11-19T03:16:12;100723.16;;;12.90;88.79
81704;BME280;71117;52.352;4.808;2023-11-19T03:18:37;100713.44;;;12.89;89.57
81704;BME280;71117;52.352;4.808;2023-11-19T03:21:05;100711.59;;;12.79;89.80
81704;BME280;71117;52.352;4.808;2023-11-19T03:23:30;100709.00;;;12.81;89.42
81704;BME280;71117;52.352;4.808;2023-11-19T03:25:56;100715.13;;;12.77;89.24
81704;BME280;71117;52.352;4.808;2023-11-19T03:28:22;100724.88;;;12.84;88.64
81704;BME280;71117;52.352;4.808;2023-11-19T03:30:47;100706.38;;;12.85;89.04
81704;BME280;71117;52.352;4.808;2023-11-19T03:33:12;100714.25;;;12.78;88.91
81704;BME280;71117;52.352;4.808;2023-11-19T03:35:38;100716.06;;;12.80;87.81
81704;BME280;71117;52.352;4.808;2023-11-19T03:38:03;100702.81;;;12.83;88.22
81704;BME280;71117;52.352;4.808;2023-11-19T03:40:29;100723.13;;;12.80;87.49
81704;BME280;71117;52.352;4.808;2023-11-19T03:42:56;100724.88;;;12.82;87.97
81704;BME280;71117;52.352;4.808;2023-11-19T03:45:22;100729.31;;;12.83;87.58
81704;BME280;71117;52.352;4.808;2023-11-19T03:47:47;100734.59;;;12.80;87.35
81704;BME280;71117;52.352;4.808;2023-11-19T03:50:15;100728.41;;;12.80;87.29
81704;BME280;71117;52.352;4.808;2023-11-19T03:52:41;100730.16;;;12.79;85.96
81704;BME280;71117;52.352;4.808;2023-11-19T03:55:06;100722.19;;;12.79;87.19
81704;BME280;71117;52.352;4.808;2023-11-19T03:57:33;100740.75;;;12.75;86.62
81704;BME280;71117;52.352;4.808;2023-11-19T03:59:59;100734.56;;;12.76;86.40
81704;BME280;71117;52.352;4.808;2023-11-19T04:02:24;100733.69;;;12.77;86.64
81704;BME280;71117;52.352;4.808;2023-11-19T04:04:53;100734.53;;;12.69;86.48
81704;BME280;71117;52.352;4.808;2023-11-19T04:07:18;100725.66;;;12.66;86.67
81704;BME280;71117;52.352;4.808;2023-11-19T04:09:43;100732.69;;;12.61;86.19
81704;BME280;71117;52.352;4.808;2023-11-19T04:12:09;100736.16;;;12.52;86.59
81704;BME280;71117;52.352;4.808;2023-11-19T04:14:36;100734.34;;;12.50;86.29
81704;BME280;71117;52.352;4.808;2023-11-19T04:17:01;100754.72;;;12.52;85.90
81704;BME280;71117;52.352;4.808;2023-11-19T04:19:26;100761.78;;;12.56;85.24
81704;BME280;71117;52.352;4.808;2023-11-19T04:21:52;100729.16;;;12.59;84.87
81704;BME280;71117;52.352;4.808;2023-11-19T04:24:18;100736.22;;;12.58;85.10
81704;BME280;71117;52.352;4.808;2023-11-19T04:26:45;100736.25;;;12.63;84.53
81704;BME280;71117;52.352;4.808;2023-11-19T04:29:13;100744.22;;;12.67;85.15
81704;BME280;71117;52.352;4.808;2023-11-19T04:31:39;100737.22;;;12.76;83.33
81704;BME280;71117;52.352;4.808;2023-11-19T04:34:06;100736.28;;;12.74;84.07
81704;BME280;71117;52.352;4.808;2023-11-19T04:36:34;100753.13;;;12.79;84.01
81704;BME280;71117;52.352;4.808;2023-11-19T04:39:00;100737.28;;;12.86;83.75
81704;BME280;71117;52.352;4.808;2023-11-19T04:41:26;100737.28;;;12.88;82.95
81704;BME280;71117;52.352;4.808;2023-11-19T04:43:53;100728.50;;;12.95;82.40
81704;BME280;71117;52.352;4.808;2023-11-19T04:46:18;100728.53;;;12.96;83.04
81704;BME280;71117;52.352;4.808;2023-11-19T04:48:44;100732.00;;;12.88;82.67
81704;BME280;71117;52.352;4.808;2023-11-19T04:51:09;100738.19;;;12.88;82.70
81704;BME280;71117;52.352;4.808;2023-11-19T04:53:35;100739.03;;;12.83;82.86
81704;BME280;71117;52.352;4.808;2023-11-19T04:56:00;100740.66;;;12.65;82.98
81704;BME280;71117;52.352;4.808;2023-11-19T04:58:25;100732.63;;;12.56;84.00
81704;BME280;71117;52.352;4.808;2023-11-19T05:00:51;100722.03;;;12.53;83.45
81704;BME280;71117;52.352;4.808;2023-11-19T05:03:16;100727.34;;;12.55;83.01
81704;BME280;71117;52.352;4.808;2023-11-19T05:05:41;100725.53;;;12.46;83.02
81704;BME280;71117;52.352;4.808;2023-11-19T05:08:06;100736.03;;;12.38;82.69
81704;BME280;71117;52.352;4.808;2023-11-19T05:10:32;100736.91;;;12.39;82.65
81704;BME280;71117;52.352;4.808;2023-11-19T05:12:57;100752.84;;;12.45;81.93
81704;BME280;71117;52.352;4.808;2023-11-19T05:15:22;100740.59;;;12.55;82.12
81704;BME280;71117;52.352;4.808;2023-11-19T05:17:48;100747.56;;;12.42;83.32
81704;BME280;71117;52.352;4.808;2023-11-19T05:20:13;100747.50;;;12.36;83.42
81704;BME280;71117;52.352;4.808;2023-11-19T05:22:42;100749.31;;;12.43;82.43
81704;BME280;71117;52.352;4.808;2023-11-19T05:25:08;100750.28;;;12.53;81.81
81704;BME280;71117;52.352;4.808;2023-11-19T05:27:35;100747.69;;;12.57;81.95
81704;BME280;71117;52.352;4.808;2023-11-19T05:30:01;100739.69;;;12.53;81.64
81704;BME280;71117;52.352;4.808;2023-11-19T05:32:27;100743.19;;;12.50;81.16
81704;BME280;71117;52.352;4.808;2023-11-19T05:34:52;100747.59;;;12.48;81.32
81704;BME280;71117;52.352;4.808;2023-11-19T05:37:17;100749.38;;;12.49;81.05
81704;BME280;71117;52.352;4.808;2023-11-19T05:39:44;100759.97;;;12.51;81.34
81704;BME280;71117;52.352;4.808;2023-11-19T05:42:10;100743.16;;;12.45;82.06
81704;BME280;71117;52.352;4.808;2023-11-19T05:44:35;100751.03;;;12.38;81.98
81704;BME280;71117;52.352;4.808;2023-11-19T05:47:02;100759.00;;;12.39;82.10
81704;BME280;71117;52.352;4.808;2023-11-19T05:49:27;100751.97;;;12.44;81.51
81704;BME280;71117;52.352;4.808;2023-11-19T05:51:52;100752.84;;;12.42;82.34
81704;BME280;71117;52.352;4.808;2023-11-19T05:54:21;100764.19;;;12.29;82.52
81704;BME280;71117;52.352;4.808;2023-11-19T05:56:49;100761.63;;;12.38;82.59
81704;BME280;71117;52.352;4.808;2023-11-19T05:59:15;100761.69;;;12.41;82.10
81704;BME280;71117;52.352;4.808;2023-11-19T06:01:43;100761.78;;;12.53;80.82
81704;BME280;71117;52.352;4.808;2023-11-19T06:04:09;100752.94;;;12.54;80.92
81704;BME280;71117;52.352;4.808;2023-11-19T06:06:35;100755.56;;;12.50;81.27
81704;BME280;71117;52.352;4.808;2023-11-19T06:09:00;100751.97;;;12.44;81.26
81704;BME280;71117;52.352;4.808;2023-11-19T06:11:26;100750.16;;;12.39;81.71
81704;BME280;71117;52.352;4.808;2023-11-19T06:13:52;100751.97;;;12.44;81.01
81704;BME280;71117;52.352;4.808;2023-11-19T06:16:18;100740.50;;;12.44;81.86
81704;BME280;71117;52.352;4.808;2023-11-19T06:18:43;100736.09;;;12.44;80.61
81704;BME280;71117;52.352;4.808;2023-11-19T06:21:09;100745.75;;;12.39;81.74
81704;BME280;71117;52.352;4.808;2023-11-19T06:23:35;100753.69;;;12.36;81.90
81704;BME280;71117;52.352;4.808;2023-11-19T06:26:00;100762.50;;;12.35;81.47
81704;BME280;71117;52.352;4.808;2023-11-19T06:28:25;100759.75;;;12.26;81.63
81704;BME280;71117;52.352;4.808;2023-11-19T06:30:50;100734.16;;;12.25;81.37
81704;BME280;71117;52.352;4.808;2023-11-19T06:33:16;100736.78;;;12.21;81.64
81704;BME280;71117;52.352;4.808;2023-11-19T06:35:41;100729.72;;;12.21;81.91
81704;BME280;71117;52.352;4.808;2023-11-19T06:38:07;100743.78;;;12.15;82.09
81704;BME280;71117;52.352;4.808;2023-11-19T06:40:33;100746.47;;;12.23;81.86
81704;BME280;71117;52.352;4.808;2023-11-19T06:42:58;100750.06;;;12.28;81.94
81704;BME280;71117;52.352;4.808;2023-11-19T06:45:24;100744.81;;;12.31;81.41
81704;BME280;71117;52.352;4.808;2023-11-19T06:47:49;100756.34;;;12.38;81.57
81704;BME280;71117;52.352;4.808;2023-11-19T06:50:15;100750.19;;;12.42;81.21
81704;BME280;71117;52.352;4.808;2023-11-19T06:52:41;100764.41;;;12.52;81.77
81704;BME280;71117;52.352;4.808;2023-11-19T06:55:06;100745.00;;;12.53;80.67
81704;BME280;71117;52.352;4.808;2023-11-19T06:57:32;100751.22;;;12.62;80.21
81704;BME280;71117;52.352;4.808;2023-11-19T06:59:58;100766.28;;;12.68;80.53
81704;BME280;71117;52.352;4.808;2023-11-19T07:02:23;100773.44;;;12.75;80.56
81704;BME280;71117;52.352;4.808;2023-11-19T07:04:49;100777.81;;;12.71;79.75
81704;BME280;71117;52.352;4.808;2023-11-19T07:07:14;100776.97;;;12.79;80.18
81704;BME280;71117;52.352;4.808;2023-11-19T07:09:40;100780.53;;;12.81;80.23
81704;BME280;71117;52.352;4.808;2023-11-19T07:12:06;100793.78;;;12.82;79.81
81704;BME280;71117;52.352;4.808;2023-11-19T07:14:31;100782.34;;;12.89;79.99
81704;BME280;71117;52.352;4.808;2023-11-19T07:16:57;100776.19;;;12.93;79.84
81704;BME280;71117;52.352;4.808;2023-11-19T07:19:22;100790.34;;;12.94;79.58
81704;BME280;71117;52.352;4.808;2023-11-19T07:21:47;100789.44;;;12.93;79.76
81704;BME280;71117;52.352;4.808;2023-11-19T07:24:13;100779.72;;;12.91;78.64
81704;BME280;71117;52.352;4.808;2023-11-19T07:26:43;100769.16;;;12.97;78.74
81704;BME280;71117;52.352;4.808;2023-11-19T07:29:09;100795.63;;;12.91;80.11
81704;BME280;71117;52.352;4.808;2023-11-19T07:31:34;100779.59;;;12.76;80.60
81704;BME280;71117;52.352;4.808;2023-11-19T07:33:59;100790.22;;;12.77;80.43
81704;BME280;71117;52.352;4.808;2023-11-19T07:36:25;100798.13;;;12.73;80.64
81704;BME280;71117;52.352;4.808;2023-11-19T07:38:50;100790.25;;;12.82;80.09
81704;BME280;71117;52.352;4.808;2023-11-19T07:41:15;100785.84;;;12.82;79.71
81704;BME280;71117;52.352;4.808;2023-11-19T07:43:43;100783.09;;;12.68;79.63
81704;BME280;71117;52.352;4.808;2023-11-19T07:46:13;100791.03;;;12.70;80.30
81704;BME280;71117;52.352;4.808;2023-11-19T07:48:39;100791.03;;;12.70;79.23
81704;BME280;71117;52.352;4.808;2023-11-19T07:51:05;100791.03;;;12.70;79.22
81704;BME280;71117;52.352;4.808;2023-11-19T07:53:30;100789.31;;;12.77;78.92
81704;BME280;71117;52.352;4.808;2023-11-19T07:55:55;100783.16;;;12.78;79.02
81704;BME280;71117;52.352;4.808;2023-11-19T07:58:21;100781.41;;;12.81;79.23
81704;BME280;71117;52.352;4.808;2023-11-19T08:00:46;100787.59;;;12.83;78.83
81704;BME280;71117;52.352;4.808;2023-11-19T08:03:11;100795.59;;;12.88;77.83
81704;BME280;71117;52.352;4.808;2023-11-19T08:05:37;100782.34;;;12.89;78.15
81704;BME280;71117;52.352;4.808;2023-11-19T08:08:02;100780.56;;;12.88;78.19
81704;BME280;71117;52.352;4.808;2023-11-19T08:10:28;100767.41;;;12.99;77.37
81704;BME280;71117;52.352;4.808;2023-11-19T08:12:54;100777.22;;;13.14;76.92
81704;BME280;71117;52.352;4.808;2023-11-19T08:15:19;100768.50;;;13.30;75.60
81704;BME280;71117;52.352;4.808;2023-11-19T08:17:44;100774.69;;;13.32;75.84
81704;BME280;71117;52.352;4.808;2023-11-19T08:20:10;100780.81;;;13.22;76.56
81704;BME280;71117;52.352;4.808;2023-11-19T08:22:36;100783.41;;;13.14;75.75
81704;BME280;71117;52.352;4.808;2023-11-19T08:25:06;100795.75;;;13.12;76.37
81704;BME280;71117;52.352;4.808;2023-11-19T08:27:32;100791.31;;;13.08;76.51
81704;BME280;71117;52.352;4.808;2023-11-19T08:29:58;100806.38;;;13.14;75.79
81704;BME280;71117;52.352;4.808;2023-11-19T08:32:24;100804.63;;;13.16;75.63
81704;BME280;71117;52.352;4.808;2023-11-19T08:34:49;100814.41;;;13.23;75.95
81704;BME280;71117;52.352;4.808;2023-11-19T08:37:15;100793.25;;;13.32;75.53
81704;BME280;71117;52.352;4.808;2023-11-19T08:39:43;100800.34;;;13.30;75.81
81704;BME280;71117;52.352;4.808;2023-11-19T08:42:08;100790.59;;;13.34;75.77
81704;BME280;71117;52.352;4.808;2023-11-19T08:44:33;100798.63;;;13.41;75.40
81704;BME280;71117;52.352;4.808;2023-11-19T08:46:59;100803.06;;;13.42;75.37
81704;BME280;71117;52.352;4.808;2023-11-19T08:49:24;100800.44;;;13.48;75.40
81704;BME280;71117;52.352;4.808;2023-11-19T08:51:49;100798.66;;;13.50;75.52
81704;BME280;71117;52.352;4.808;2023-11-19T08:54:15;100801.34;;;13.57;76.23
81704;BME280;71117;52.352;4.808;2023-11-19T08:56:40;100796.00;;;13.50;76.06
81704;BME280;71117;52.352;4.808;2023-11-19T08:59:06;100801.34;;;13.55;76.88
81704;BME280;71117;52.352;4.808;2023-11-19T09:01:31;100802.25;;;13.68;76.69
81704;BME280;71117;52.352;4.808;2023-11-19T09:03:57;100798.75;;;13.73;75.89
81704;BME280;71117;52.352;4.808;2023-11-19T09:06:22;100786.41;;;13.85;75.39
81704;BME280;71117;52.352;4.808;2023-11-19T09:08:48;100782.84;;;13.78;75.06
81704;BME280;71117;52.352;4.808;2023-11-19T09:11:13;100778.41;;;13.74;75.46
81704;BME280;71117;52.352;4.808;2023-11-19T09:13:38;100791.66;;;13.66;75.05
81704;BME280;71117;52.352;4.808;2023-11-19T09:16:04;100799.59;;;13.62;75.08
81704;BME280;71117;52.352;4.808;2023-11-19T09:18:30;100784.63;;;13.79;75.16
81704;BME280;71117;52.352;4.808;2023-11-19T09:20:55;100783.81;;;14.00;74.58
81704;BME280;71117;52.352;4.808;2023-11-19T09:23:21;100784.63;;;13.82;73.70
81704;BME280;71117;52.352;4.808;2023-11-19T09:25:46;100782.00;;;13.81;74.74
81704;BME280;71117;52.352;4.808;2023-11-19T09:28:12;100794.38;;;13.83;74.76
81704;BME280;71117;52.352;4.808;2023-11-19T09:30:39;100791.72;;;13.83;74.39
81704;BME280;71117;52.352;4.808;2023-11-19T09:33:04;100783.72;;;13.74;74.65
81704;BME280;71117;52.352;4.808;2023-11-19T09:35:30;100779.31;;;13.84;74.57
81704;BME280;71117;52.352;4.808;2023-11-19T09:37:56;100795.28;;;13.87;74.64
81704;BME280;71117;52.352;4.808;2023-11-19T09:40:21;100789.09;;;13.88;74.79
81704;BME280;71117;52.352;4.808;2023-11-19T09:42:47;100775.78;;;13.82;75.01
81704;BME280;71117;52.352;4.808;2023-11-19T09:45:15;100774.03;;;13.82;75.43
81704;BME280;71117;52.352;4.808;2023-11-19T09:47:45;100774.00;;;13.70;76.11
81704;BME280;71117;52.352;4.808;2023-11-19T09:50:18;100792.56;;;13.71;76.45
81704;BME280;71117;52.352;4.808;2023-11-19T09:52:44;100797.91;;;13.76;75.36
81704;BME280;71117;52.352;4.808;2023-11-19T09:55:10;100792.53;;;13.67;76.13
81704;BME280;71117;52.352;4.808;2023-11-19T09:57:38;100804.16;;;13.99;74.79
81704;BME280;71117;52.352;4.808;2023-11-19T10:00:04;100772.34;;;14.16;74.04
81704;BME280;71117;52.352;4.808;2023-11-19T10:02:33;100776.75;;;14.17;73.86
81704;BME280;71117;52.352;4.808;2023-11-19T10:05:04;100786.50;;;14.21;74.09
81704;BME280;71117;52.352;4.808;2023-11-19T10:07:31;100771.38;;;13.87;74.58
81704;BME280;71117;52.352;4.808;2023-11-19T10:09:59;100773.22;;;14.09;74.26
81704;BME280;71117;52.352;4.808;2023-11-19T10:12:26;100768.84;;;14.37;72.97
81704;BME280;71117;52.352;4.808;2023-11-19T10:14:51;100770.59;;;14.26;72.54
81704;BME280;71117;52.352;4.808;2023-11-19T10:17:17;100772.31;;;14.19;72.62
81704;BME280;71117;52.352;4.808;2023-11-19T10:19:43;100781.16;;;14.01;73.09
81704;BME280;71117;52.352;4.808;2023-11-19T10:22:08;100773.13;;;13.85;73.95
81704;BME280;71117;52.352;4.808;2023-11-19T10:24:34;100781.00;;;13.54;76.76
81704;BME280;71117;52.352;4.808;2023-11-19T10:27:00;100761.50;;;13.52;78.35
81704;BME280;71117;52.352;4.808;2023-11-19T10:29:26;100758.91;;;13.60;77.63
81704;BME280;71117;52.352;4.808;2023-11-19T10:31:58;100745.66;;;13.73;76.22
81704;BME280;71117;52.352;4.808;2023-11-19T10:34:25;100757.34;;;14.52;72.92
81704;BME280;71117;52.352;4.808;2023-11-19T10:36:51;100762.56;;;15.24;71.26
81704;BME280;71117;52.352;4.808;2023-11-19T10:39:16;100767.78;;;15.48;69.51
81704;BME280;71117;52.352;4.808;2023-11-19T10:41:43;100768.44;;;16.04;67.30
81704;BME280;71117;52.352;4.808;2023-11-19T10:44:08;100772.00;;;15.98;66.40
81704;BME280;71117;52.352;4.808;2023-11-19T10:46:41;100761.28;;;16.13;65.98
81704;BME280;71117;52.352;4.808;2023-11-19T10:49:07;100768.56;;;15.84;66.34
81704;BME280;71117;52.352;4.808;2023-11-19T10:51:33;100789.16;;;15.18;68.31
81704;BME280;71117;52.352;4.808;2023-11-19T10:54:02;100779.47;;;14.89;69.62
81704;BME280;71117;52.352;4.808;2023-11-19T10:56:33;100780.38;;;14.79;69.49
81704;BME280;71117;52.352;4.808;2023-11-19T10:59:02;100772.25;;;15.46;68.51
81704;BME280;71117;52.352;4.808;2023-11-19T11:01:40;100765.66;;;16.21;64.88
81704;BME280;71117;52.352;4.808;2023-11-19T11:04:14;100779.97;;;17.16;61.23
81704;BME280;71117;52.352;4.808;2023-11-19T11:06:40;100777.56;;;17.75;59.57
81704;BME280;71117;52.352;4.808;2023-11-19T11:09:07;100763.84;;;18.57;56.83
81704;BME280;71117;52.352;4.808;2023-11-19T11:11:38;100766.47;;;18.04;56.97
81704;BME280;71117;52.352;4.808;2023-11-19T11:14:04;100765.59;;;18.01;58.64
81704;BME280;71117;52.352;4.808;2023-11-19T11:16:31;100767.84;;;18.31;57.32
81704;BME280;71117;52.352;4.808;2023-11-19T11:18:57;100764.25;;;18.32;55.66
81704;BME280;71117;52.352;4.808;2023-11-19T11:21:24;100768.66;;;18.36;56.34
81704;BME280;71117;52.352;4.808;2023-11-19T11:29:24;100760.56;;;15.85;63.81
81704;BME280;71117;52.352;4.808;2023-11-19T11:37:18;100752.78;;;15.29;65.96
81704;BME280;71117;52.352;4.808;2023-11-19T11:39:45;100757.28;;;15.16;66.29
81704;BME280;71117;52.352;4.808;2023-11-19T11:45:03;100753.69;;;15.28;66.98
81704;BME280;71117;52.352;4.808;2023-11-19T11:50:12;100759.94;;;14.98;66.87
81704;BME280;71117;52.352;4.808;2023-11-19T11:55:28;100748.28;;;15.48;65.55
81704;BME280;71117;52.352;4.808;2023-11-19T11:57:55;100744.72;;;15.47;65.56
81704;BME280;71117;52.352;4.808;2023-11-19T12:00:28;100749.31;;;15.10;66.72
81704;BME280;71117;52.352;4.808;2023-11-19T12:03:02;100740.47;;;14.93;68.06
81704;BME280;71117;52.352;4.808;2023-11-19T12:05:28;100756.44;;;14.77;68.20
81704;BME280;71117;52.352;4.808;2023-11-19T12:08:04;100744.00;;;14.46;68.85
81704;BME280;71117;52.352;4.808;2023-11-19T12:10:45;100736.97;;;14.51;69.47
81704;BME280;71117;52.352;4.808;2023-11-19T12:13:13;100741.41;;;14.49;69.83
81704;BME280;71117;52.352;4.808;2023-11-19T12:18:29;100751.09;;;14.41;69.92
81704;BME280;71117;52.352;4.808;2023-11-19T12:20:56;100739.63;;;14.52;70.28
81704;BME280;71117;52.352;4.808;2023-11-19T12:23:22;100753.75;;;14.41;70.65
81704;BME280;71117;52.352;4.808;2023-11-19T12:25:48;100782.97;;;14.30;71.17
81704;BME280;71117;52.352;4.808;2023-11-19T12:28:14;100746.66;;;14.23;71.90
81704;BME280;71117;52.352;4.808;2023-11-19T12:30:41;100742.22;;;14.07;71.89
81704;BME280;71117;52.352;4.808;2023-11-19T12:33:10;100748.44;;;14.27;71.62
81704;BME280;71117;52.352;4.808;2023-11-19T12:35:44;100757.28;;;14.35;71.97
81704;BME280;71117;52.352;4.808;2023-11-19T12:38:21;100745.78;;;14.36;72.12
81704;BME280;71117;52.352;4.808;2023-11-19T12:40:47;100738.69;;;14.41;71.87
81704;BME280;71117;52.352;4.808;2023-11-19T12:43:22;100743.13;;;14.04;72.27
81704;BME280;71117;52.352;4.808;2023-11-19T12:45:47;100737.81;;;14.21;72.41
81704;BME280;71117;52.352;4.808;2023-11-19T12:48:13;100736.91;;;14.19;72.62
81704;BME280;71117;52.352;4.808;2023-11-19T12:50:54;100745.78;;;14.18;72.78
81704;BME280;71117;52.352;4.808;2023-11-19T12:53:21;100728.97;;;14.26;72.78
81704;BME280;71117;52.352;4.808;2023-11-19T12:55:47;100735.16;;;14.15;73.25
81704;BME280;71117;52.352;4.808;2023-11-19T12:58:48;100751.06;;;14.12;72.76
81704;BME280;71117;52.352;4.808;2023-11-19T13:01:20;100740.44;;;14.06;73.41
81704;BME280;71117;52.352;4.808;2023-11-19T13:03:46;100736.00;;;13.92;72.83
81704;BME280;71117;52.352;4.808;2023-11-19T13:06:14;100731.56;;;13.91;73.71
81704;BME280;71117;52.352;4.808;2023-11-19T13:08:45;100732.44;;;13.84;74.73